Terminal Aerodrome Forecast
Issued by NWS

Home | Current Version | Previous Version | Text Only | Print | Product List | Glossary On
Versions: 1 2 3 4 5 6 7 8 9 10 11 12 13 14 15 16 17
000
FTUS43 KLSX 280520
TAFCPS
TAF
KCPS 280520Z 2806/2906 VRB04KT P6SM BKN250
     FM280900 VRB03KT 3SM BR SCT250
     FM281300 16005KT P6SM SCT035
     FM282000 20005KT P6SM VCTS SCT035CB
     FM290300 VRB04KT P6SM SCT250=

USA.gov is the U.S. government's official web portal to all federal, state and local government web resources and services.